sensor_id;sensor_type;location;lat;lon;timestamp;P1;durP1;ratioP1;P2;durP2;ratioP2
68250;SDS011;55066;51.560;4.642;2023-05-13T00:00:20;15.83;;;9.90;;
68250;SDS011;55066;51.560;4.642;2023-05-13T00:02:46;18.05;;;10.10;;
68250;SDS011;55066;51.560;4.642;2023-05-13T00:05:11;19.30;;;10.60;;
68250;SDS011;55066;51.560;4.642;2023-05-13T00:07:37;17.23;;;10.50;;
68250;SDS011;55066;51.560;4.642;2023-05-13T00:10:02;20.17;;;10.40;;
68250;SDS011;55066;51.560;4.642;2023-05-13T00:12:28;20.95;;;10.60;;
68250;SDS011;55066;51.560;4.642;2023-05-13T00:14:55;20.02;;;10.23;;
68250;SDS011;55066;51.560;4.642;2023-05-13T00:17:20;19.05;;;10.70;;
68250;SDS011;55066;51.560;4.642;2023-05-13T00:19:46;18.33;;;11.10;;
68250;SDS011;55066;51.560;4.642;2023-05-13T00:22:11;16.93;;;9.97;;
68250;SDS011;55066;51.560;4.642;2023-05-13T00:24:37;22.23;;;11.10;;
68250;SDS011;55066;51.560;4.642;2023-05-13T00:27:02;19.52;;;11.10;;
68250;SDS011;55066;51.560;4.642;2023-05-13T00:29:28;16.93;;;10.60;;
68250;SDS011;55066;51.560;4.642;2023-05-13T00:31:53;20.00;;;10.70;;
68250;SDS011;55066;51.560;4.642;2023-05-13T00:34:19;17.08;;;10.93;;
68250;SDS011;55066;51.560;4.642;2023-05-13T00:36:44;16.40;;;9.80;;
68250;SDS011;55066;51.560;4.642;2023-05-13T00:39:10;17.00;;;10.80;;
68250;SDS011;55066;51.560;4.642;2023-05-13T00:41:36;17.00;;;10.02;;
68250;SDS011;55066;51.560;4.642;2023-05-13T00:44:02;19.48;;;11.30;;
68250;SDS011;55066;51.560;4.642;2023-05-13T00:46:31;17.90;;;10.53;;
68250;SDS011;55066;51.560;4.642;2023-05-13T00:49:00;17.75;;;10.00;;
68250;SDS011;55066;51.560;4.642;2023-05-13T00:51:26;16.50;;;10.23;;
68250;SDS011;55066;51.560;4.642;2023-05-13T00:53:52;17.55;;;10.15;;
68250;SDS011;55066;51.560;4.642;2023-05-13T00:56:21;18.33;;;10.43;;
68250;SDS011;55066;51.560;4.642;2023-05-13T00:58:46;14.93;;;9.35;;
68250;SDS011;55066;51.560;4.642;2023-05-13T01:12:15;16.33;;;9.67;;
68250;SDS011;55066;51.560;4.642;2023-05-13T01:15:08;16.83;;;10.32;;
68250;SDS011;55066;51.560;4.642;2023-05-13T01:20:20;16.55;;;9.48;;
68250;SDS011;55066;51.560;4.642;2023-05-13T01:22:47;15.40;;;9.13;;
68250;SDS011;55066;51.560;4.642;2023-05-13T01:25:13;16.33;;;9.70;;
68250;SDS011;55066;51.560;4.642;2023-05-13T01:27:39;16.38;;;9.10;;
68250;SDS011;55066;51.560;4.642;2023-05-13T01:30:06;15.35;;;9.07;;
68250;SDS011;55066;51.560;4.642;2023-05-13T01:32:33;14.65;;;8.88;;
68250;SDS011;55066;51.560;4.642;2023-05-13T01:34:59;22.25;;;9.23;;
68250;SDS011;55066;51.560;4.642;2023-05-13T01:37:26;16.17;;;9.25;;
68250;SDS011;55066;51.560;4.642;2023-05-13T01:39:53;15.18;;;9.07;;
68250;SDS011;55066;51.560;4.642;2023-05-13T01:42:18;14.20;;;8.10;;
68250;SDS011;55066;51.560;4.642;2023-05-13T01:44:44;14.05;;;8.23;;
68250;SDS011;55066;51.560;4.642;2023-05-13T01:47:09;17.65;;;8.38;;
68250;SDS011;55066;51.560;4.642;2023-05-13T01:49:35;12.83;;;7.83;;
68250;SDS011;55066;51.560;4.642;2023-05-13T01:52:00;13.80;;;8.17;;
68250;SDS011;55066;51.560;4.642;2023-05-13T01:54:27;17.98;;;8.45;;
68250;SDS011;55066;51.560;4.642;2023-05-13T01:56:57;13.90;;;8.02;;
68250;SDS011;55066;51.560;4.642;2023-05-13T01:59:23;16.23;;;8.00;;
68250;SDS011;55066;51.560;4.642;2023-05-13T02:01:48;13.30;;;8.10;;
68250;SDS011;55066;51.560;4.642;2023-05-13T02:04:13;14.52;;;7.50;;
68250;SDS011;55066;51.560;4.642;2023-05-13T02:06:40;13.48;;;7.43;;
68250;SDS011;55066;51.560;4.642;2023-05-13T02:09:06;16.00;;;7.80;;
68250;SDS011;55066;51.560;4.642;2023-05-13T02:11:31;13.77;;;7.67;;
68250;SDS011;55066;51.560;4.642;2023-05-13T02:13:57;15.50;;;8.35;;
68250;SDS011;55066;51.560;4.642;2023-05-13T02:16:23;12.00;;;7.10;;
68250;SDS011;55066;51.560;4.642;2023-05-13T02:18:48;13.45;;;7.40;;
68250;SDS011;55066;51.560;4.642;2023-05-13T02:21:13;12.70;;;7.75;;
68250;SDS011;55066;51.560;4.642;2023-05-13T02:23:39;13.50;;;7.27;;
68250;SDS011;55066;51.560;4.642;2023-05-13T02:26:04;13.87;;;7.20;;
68250;SDS011;55066;51.560;4.642;2023-05-13T02:28:30;18.73;;;7.47;;
68250;SDS011;55066;51.560;4.642;2023-05-13T02:30:55;14.05;;;7.38;;
68250;SDS011;55066;51.560;4.642;2023-05-13T02:33:21;13.10;;;7.33;;
68250;SDS011;55066;51.560;4.642;2023-05-13T02:35:46;15.50;;;7.33;;
68250;SDS011;55066;51.560;4.642;2023-05-13T02:38:12;14.10;;;6.83;;
68250;SDS011;55066;51.560;4.642;2023-05-13T02:40:37;13.23;;;7.07;;
68250;SDS011;55066;51.560;4.642;2023-05-13T02:43:03;11.63;;;7.07;;
68250;SDS011;55066;51.560;4.642;2023-05-13T02:45:42;13.25;;;7.28;;
68250;SDS011;55066;51.560;4.642;2023-05-13T02:48:09;12.35;;;6.78;;
68250;SDS011;55066;51.560;4.642;2023-05-13T02:50:35;11.07;;;6.15;;
68250;SDS011;55066;51.560;4.642;2023-05-13T02:53:01;11.32;;;7.07;;
68250;SDS011;55066;51.560;4.642;2023-05-13T02:55:27;13.40;;;7.10;;
68250;SDS011;55066;51.560;4.642;2023-05-13T02:57:52;13.57;;;7.15;;
68250;SDS011;55066;51.560;4.642;2023-05-13T03:00:18;10.57;;;6.70;;
68250;SDS011;55066;51.560;4.642;2023-05-13T03:02:43;10.50;;;6.83;;
68250;SDS011;55066;51.560;4.642;2023-05-13T03:05:09;13.48;;;6.65;;
68250;SDS011;55066;51.560;4.642;2023-05-13T03:07:34;12.70;;;6.70;;
68250;SDS011;55066;51.560;4.642;2023-05-13T03:10:00;12.55;;;6.95;;
68250;SDS011;55066;51.560;4.642;2023-05-13T03:12:27;14.07;;;7.30;;
68250;SDS011;55066;51.560;4.642;2023-05-13T03:14:52;12.43;;;7.15;;
68250;SDS011;55066;51.560;4.642;2023-05-13T03:17:18;15.80;;;7.40;;
68250;SDS011;55066;51.560;4.642;2023-05-13T03:19:43;11.57;;;7.37;;
68250;SDS011;55066;51.560;4.642;2023-05-13T03:22:08;14.37;;;7.90;;
68250;SDS011;55066;51.560;4.642;2023-05-13T03:24:34;13.52;;;7.57;;
68250;SDS011;55066;51.560;4.642;2023-05-13T03:27:01;12.13;;;7.03;;
68250;SDS011;55066;51.560;4.642;2023-05-13T03:29:27;12.82;;;7.60;;
68250;SDS011;55066;51.560;4.642;2023-05-13T03:31:52;15.30;;;7.88;;
68250;SDS011;55066;51.560;4.642;2023-05-13T03:34:18;13.15;;;7.30;;
68250;SDS011;55066;51.560;4.642;2023-05-13T03:36:44;13.95;;;7.97;;
68250;SDS011;55066;51.560;4.642;2023-05-13T03:39:10;14.83;;;8.07;;
68250;SDS011;55066;51.560;4.642;2023-05-13T03:41:36;18.00;;;8.75;;
68250;SDS011;55066;51.560;4.642;2023-05-13T03:44:02;12.60;;;7.90;;
68250;SDS011;55066;51.560;4.642;2023-05-13T03:46:27;14.13;;;7.68;;
68250;SDS011;55066;51.560;4.642;2023-05-13T03:48:54;16.83;;;8.75;;
68250;SDS011;55066;51.560;4.642;2023-05-13T03:51:20;16.10;;;8.67;;
68250;SDS011;55066;51.560;4.642;2023-05-13T03:53:46;13.70;;;8.60;;
68250;SDS011;55066;51.560;4.642;2023-05-13T03:56:12;13.40;;;7.93;;
68250;SDS011;55066;51.560;4.642;2023-05-13T03:58:39;19.00;;;9.38;;
68250;SDS011;55066;51.560;4.642;2023-05-13T04:01:05;14.45;;;8.52;;
68250;SDS011;55066;51.560;4.642;2023-05-13T04:03:31;15.98;;;8.52;;
68250;SDS011;55066;51.560;4.642;2023-05-13T04:05:57;14.07;;;8.23;;
68250;SDS011;55066;51.560;4.642;2023-05-13T04:08:22;15.17;;;8.73;;
68250;SDS011;55066;51.560;4.642;2023-05-13T04:10:48;18.48;;;8.80;;
68250;SDS011;55066;51.560;4.642;2023-05-13T04:13:13;16.02;;;8.45;;
68250;SDS011;55066;51.560;4.642;2023-05-13T04:15:38;15.30;;;9.13;;
68250;SDS011;55066;51.560;4.642;2023-05-13T04:18:04;16.03;;;8.87;;
68250;SDS011;55066;51.560;4.642;2023-05-13T04:20:30;15.63;;;8.65;;
68250;SDS011;55066;51.560;4.642;2023-05-13T04:22:55;14.77;;;8.70;;
68250;SDS011;55066;51.560;4.642;2023-05-13T04:25:20;16.93;;;8.50;;
68250;SDS011;55066;51.560;4.642;2023-05-13T04:27:46;14.33;;;7.23;;
68250;SDS011;55066;51.560;4.642;2023-05-13T04:30:18;15.20;;;7.72;;
68250;SDS011;55066;51.560;4.642;2023-05-13T04:32:45;14.65;;;8.75;;
68250;SDS011;55066;51.560;4.642;2023-05-13T04:35:11;15.25;;;8.38;;
68250;SDS011;55066;51.560;4.642;2023-05-13T04:37:37;15.98;;;9.45;;
68250;SDS011;55066;51.560;4.642;2023-05-13T04:40:05;13.53;;;7.83;;
68250;SDS011;55066;51.560;4.642;2023-05-13T04:42:32;15.20;;;8.07;;
68250;SDS011;55066;51.560;4.642;2023-05-13T04:44:58;14.10;;;8.43;;
68250;SDS011;55066;51.560;4.642;2023-05-13T04:47:23;13.60;;;8.27;;
68250;SDS011;55066;51.560;4.642;2023-05-13T04:49:48;15.47;;;8.80;;
68250;SDS011;55066;51.560;4.642;2023-05-13T04:52:14;16.75;;;8.45;;
68250;SDS011;55066;51.560;4.642;2023-05-13T04:54:39;18.08;;;10.13;;
68250;SDS011;55066;51.560;4.642;2023-05-13T04:57:06;20.23;;;9.23;;
68250;SDS011;55066;51.560;4.642;2023-05-13T04:59:32;15.23;;;8.40;;
68250;SDS011;55066;51.560;4.642;2023-05-13T05:01:58;16.65;;;9.40;;
68250;SDS011;55066;51.560;4.642;2023-05-13T05:04:24;18.87;;;9.80;;
68250;SDS011;55066;51.560;4.642;2023-05-13T05:06:50;17.20;;;8.70;;
68250;SDS011;55066;51.560;4.642;2023-05-13T05:09:16;19.60;;;10.15;;
68250;SDS011;55066;51.560;4.642;2023-05-13T05:11:44;17.90;;;9.47;;
68250;SDS011;55066;51.560;4.642;2023-05-13T05:14:09;16.90;;;9.77;;
68250;SDS011;55066;51.560;4.642;2023-05-13T05:16:35;21.00;;;9.77;;
68250;SDS011;55066;51.560;4.642;2023-05-13T05:19:01;16.95;;;9.82;;
68250;SDS011;55066;51.560;4.642;2023-05-13T05:21:28;16.80;;;9.27;;
68250;SDS011;55066;51.560;4.642;2023-05-13T05:23:54;19.90;;;9.40;;
68250;SDS011;55066;51.560;4.642;2023-05-13T05:26:19;18.15;;;10.27;;
68250;SDS011;55066;51.560;4.642;2023-05-13T05:28:46;17.83;;;9.30;;
68250;SDS011;55066;51.560;4.642;2023-05-13T05:31:12;24.40;;;10.60;;
68250;SDS011;55066;51.560;4.642;2023-05-13T05:33:37;17.37;;;9.60;;
68250;SDS011;55066;51.560;4.642;2023-05-13T05:36:05;17.77;;;10.25;;
68250;SDS011;55066;51.560;4.642;2023-05-13T05:38:30;19.67;;;9.15;;
68250;SDS011;55066;51.560;4.642;2023-05-13T05:40:57;18.98;;;9.95;;
68250;SDS011;55066;51.560;4.642;2023-05-13T05:43:23;18.15;;;10.88;;
68250;SDS011;55066;51.560;4.642;2023-05-13T05:45:50;18.88;;;10.05;;
68250;SDS011;55066;51.560;4.642;2023-05-13T05:48:17;21.95;;;10.98;;
68250;SDS011;55066;51.560;4.642;2023-05-13T05:50:42;17.33;;;10.43;;
68250;SDS011;55066;51.560;4.642;2023-05-13T05:53:11;25.70;;;10.75;;
68250;SDS011;55066;51.560;4.642;2023-05-13T05:55:37;17.75;;;10.50;;
68250;SDS011;55066;51.560;4.642;2023-05-13T05:58:03;18.52;;;10.05;;
68250;SDS011;55066;51.560;4.642;2023-05-13T06:00:34;19.98;;;10.07;;
68250;SDS011;55066;51.560;4.642;2023-05-13T06:03:00;18.73;;;10.20;;
68250;SDS011;55066;51.560;4.642;2023-05-13T06:05:25;18.30;;;10.73;;
68250;SDS011;55066;51.560;4.642;2023-05-13T06:07:51;19.92;;;10.48;;
68250;SDS011;55066;51.560;4.642;2023-05-13T06:10:17;22.50;;;11.02;;
68250;SDS011;55066;51.560;4.642;2023-05-13T06:12:42;18.10;;;10.43;;
68250;SDS011;55066;51.560;4.642;2023-05-13T06:15:08;19.75;;;11.20;;
68250;SDS011;55066;51.560;4.642;2023-05-13T06:17:37;19.00;;;10.35;;
68250;SDS011;55066;51.560;4.642;2023-05-13T06:20:04;18.60;;;11.18;;
68250;SDS011;55066;51.560;4.642;2023-05-13T06:22:30;16.83;;;9.57;;
68250;SDS011;55066;51.560;4.642;2023-05-13T06:24:56;21.15;;;11.18;;
68250;SDS011;55066;51.560;4.642;2023-05-13T06:27:21;17.83;;;10.90;;
68250;SDS011;55066;51.560;4.642;2023-05-13T06:29:47;20.07;;;10.50;;
68250;SDS011;55066;51.560;4.642;2023-05-13T06:32:13;18.47;;;9.33;;
68250;SDS011;55066;51.560;4.642;2023-05-13T06:34:38;22.52;;;10.20;;
68250;SDS011;55066;51.560;4.642;2023-05-13T06:37:10;21.50;;;11.25;;
68250;SDS011;55066;51.560;4.642;2023-05-13T06:39:38;19.73;;;11.10;;
68250;SDS011;55066;51.560;4.642;2023-05-13T06:42:03;19.77;;;10.50;;
68250;SDS011;55066;51.560;4.642;2023-05-13T06:44:32;18.90;;;10.80;;
68250;SDS011;55066;51.560;4.642;2023-05-13T06:46:57;19.87;;;9.77;;
68250;SDS011;55066;51.560;4.642;2023-05-13T06:49:23;18.90;;;9.65;;
68250;SDS011;55066;51.560;4.642;2023-05-13T06:51:49;18.87;;;10.87;;
68250;SDS011;55066;51.560;4.642;2023-05-13T06:54:15;20.83;;;10.85;;
68250;SDS011;55066;51.560;4.642;2023-05-13T06:56:40;20.20;;;10.10;;
68250;SDS011;55066;51.560;4.642;2023-05-13T06:59:06;21.03;;;10.80;;
68250;SDS011;55066;51.560;4.642;2023-05-13T07:01:31;22.97;;;11.03;;
68250;SDS011;55066;51.560;4.642;2023-05-13T07:03:57;21.07;;;10.00;;
68250;SDS011;55066;51.560;4.642;2023-05-13T07:06:22;21.08;;;10.65;;
68250;SDS011;55066;51.560;4.642;2023-05-13T07:08:47;18.10;;;9.77;;
68250;SDS011;55066;51.560;4.642;2023-05-13T07:11:13;19.43;;;10.40;;
68250;SDS011;55066;51.560;4.642;2023-05-13T07:13:38;20.13;;;10.47;;
68250;SDS011;55066;51.560;4.642;2023-05-13T07:16:04;20.25;;;10.73;;
68250;SDS011;55066;51.560;4.642;2023-05-13T07:18:30;20.77;;;11.47;;
68250;SDS011;55066;51.560;4.642;2023-05-13T07:20:55;16.43;;;10.27;;
68250;SDS011;55066;51.560;4.642;2023-05-13T07:23:23;20.87;;;10.43;;
68250;SDS011;55066;51.560;4.642;2023-05-13T07:25:49;20.30;;;9.88;;
68250;SDS011;55066;51.560;4.642;2023-05-13T07:28:17;21.77;;;10.88;;
68250;SDS011;55066;51.560;4.642;2023-05-13T07:30:43;20.15;;;10.80;;
68250;SDS011;55066;51.560;4.642;2023-05-13T07:33:09;18.87;;;9.90;;
68250;SDS011;55066;51.560;4.642;2023-05-13T07:35:37;18.23;;;9.77;;
68250;SDS011;55066;51.560;4.642;2023-05-13T07:38:03;20.65;;;10.30;;
68250;SDS011;55066;51.560;4.642;2023-05-13T07:40:29;19.60;;;10.88;;
68250;SDS011;55066;51.560;4.642;2023-05-13T07:42:54;18.43;;;11.17;;
68250;SDS011;55066;51.560;4.642;2023-05-13T07:45:20;18.60;;;9.83;;
68250;SDS011;55066;51.560;4.642;2023-05-13T07:47:46;18.98;;;9.98;;
68250;SDS011;55066;51.560;4.642;2023-05-13T07:50:11;18.60;;;10.30;;
68250;SDS011;55066;51.560;4.642;2023-05-13T07:52:37;19.63;;;10.70;;
68250;SDS011;55066;51.560;4.642;2023-05-13T07:55:02;22.20;;;10.93;;
68250;SDS011;55066;51.560;4.642;2023-05-13T07:57:28;16.40;;;10.50;;
68250;SDS011;55066;51.560;4.642;2023-05-13T07:59:53;17.48;;;9.90;;
68250;SDS011;55066;51.560;4.642;2023-05-13T08:02:22;17.02;;;10.18;;
68250;SDS011;55066;51.560;4.642;2023-05-13T08:04:48;15.53;;;9.80;;
68250;SDS011;55066;51.560;4.642;2023-05-13T08:07:14;15.60;;;9.85;;
68250;SDS011;55066;51.560;4.642;2023-05-13T08:09:39;16.53;;;9.77;;
68250;SDS011;55066;51.560;4.642;2023-05-13T08:12:05;18.17;;;10.00;;
68250;SDS011;55066;51.560;4.642;2023-05-13T08:14:30;16.42;;;10.25;;
68250;SDS011;55066;51.560;4.642;2023-05-13T08:16:56;20.20;;;10.00;;
68250;SDS011;55066;51.560;4.642;2023-05-13T08:19:21;15.00;;;9.27;;
68250;SDS011;55066;51.560;4.642;2023-05-13T08:21:47;20.33;;;10.20;;
68250;SDS011;55066;51.560;4.642;2023-05-13T08:24:12;16.60;;;10.75;;
68250;SDS011;55066;51.560;4.642;2023-05-13T08:26:37;16.87;;;10.07;;
68250;SDS011;55066;51.560;4.642;2023-05-13T08:29:03;17.97;;;10.90;;
68250;SDS011;55066;51.560;4.642;2023-05-13T08:31:28;17.50;;;10.57;;
68250;SDS011;55066;51.560;4.642;2023-05-13T08:33:56;17.40;;;9.90;;
68250;SDS011;55066;51.560;4.642;2023-05-13T08:36:21;19.17;;;10.53;;
68250;SDS011;55066;51.560;4.642;2023-05-13T08:38:47;18.50;;;11.03;;
68250;SDS011;55066;51.560;4.642;2023-05-13T08:41:13;17.93;;;10.37;;
68250;SDS011;55066;51.560;4.642;2023-05-13T08:43:39;17.20;;;10.82;;
68250;SDS011;55066;51.560;4.642;2023-05-13T08:46:05;17.33;;;10.27;;
68250;SDS011;55066;51.560;4.642;2023-05-13T08:48:33;18.48;;;9.98;;
68250;SDS011;55066;51.560;4.642;2023-05-13T08:51:00;17.60;;;10.85;;
68250;SDS011;55066;51.560;4.642;2023-05-13T08:53:26;14.87;;;9.77;;
68250;SDS011;55066;51.560;4.642;2023-05-13T08:55:52;15.88;;;10.23;;
68250;SDS011;55066;51.560;4.642;2023-05-13T08:58:18;16.42;;;10.20;;
68250;SDS011;55066;51.560;4.642;2023-05-13T09:00:44;17.33;;;10.10;;
68250;SDS011;55066;51.560;4.642;2023-05-13T09:03:11;17.80;;;9.60;;
68250;SDS011;55066;51.560;4.642;2023-05-13T09:05:37;15.40;;;9.70;;
68250;SDS011;55066;51.560;4.642;2023-05-13T09:08:05;14.10;;;9.35;;
68250;SDS011;55066;51.560;4.642;2023-05-13T09:10:32;16.37;;;9.53;;
68250;SDS011;55066;51.560;4.642;2023-05-13T09:12:58;15.82;;;9.30;;
68250;SDS011;55066;51.560;4.642;2023-05-13T09:15:26;17.30;;;10.02;;
68250;SDS011;55066;51.560;4.642;2023-05-13T09:17:55;22.17;;;12.83;;
68250;SDS011;55066;51.560;4.642;2023-05-13T09:20:23;16.70;;;9.32;;
68250;SDS011;55066;51.560;4.642;2023-05-13T09:25:20;16.67;;;9.70;;
68250;SDS011;55066;51.560;4.642;2023-05-13T09:28:00;13.75;;;9.05;;
68250;SDS011;55066;51.560;4.642;2023-05-13T09:30:28;14.33;;;8.90;;
68250;SDS011;55066;51.560;4.642;2023-05-13T09:35:29;15.07;;;9.27;;
68250;SDS011;55066;51.560;4.642;2023-05-13T09:37:55;15.20;;;9.57;;
68250;SDS011;55066;51.560;4.642;2023-05-13T09:40:21;12.93;;;8.90;;
68250;SDS011;55066;51.560;4.642;2023-05-13T09:42:47;16.73;;;9.38;;
68250;SDS011;55066;51.560;4.642;2023-05-13T09:45:13;14.23;;;8.23;;
68250;SDS011;55066;51.560;4.642;2023-05-13T09:47:39;15.23;;;9.48;;
68250;SDS011;55066;51.560;4.642;2023-05-13T09:50:06;14.40;;;8.80;;
68250;SDS011;55066;51.560;4.642;2023-05-13T09:52:33;14.18;;;9.02;;
68250;SDS011;55066;51.560;4.642;2023-05-13T09:55:00;14.25;;;8.98;;
68250;SDS011;55066;51.560;4.642;2023-05-13T09:57:29;14.95;;;9.15;;
68250;SDS011;55066;51.560;4.642;2023-05-13T10:00:02;15.50;;;8.52;;
68250;SDS011;55066;51.560;4.642;2023-05-13T10:02:35;14.97;;;9.07;;
68250;SDS011;55066;51.560;4.642;2023-05-13T10:05:02;14.45;;;9.38;;
68250;SDS011;55066;51.560;4.642;2023-05-13T10:07:29;13.57;;;8.80;;
68250;SDS011;55066;51.560;4.642;2023-05-13T10:09:59;15.63;;;9.10;;
68250;SDS011;55066;51.560;4.642;2023-05-13T10:12:27;13.13;;;8.90;;
68250;SDS011;55066;51.560;4.642;2023-05-13T10:14:54;12.50;;;8.53;;
68250;SDS011;55066;51.560;4.642;2023-05-13T10:17:20;15.52;;;9.30;;
68250;SDS011;55066;51.560;4.642;2023-05-13T10:19:48;14.48;;;8.75;;
68250;SDS011;55066;51.560;4.642;2023-05-13T10:22:14;15.10;;;8.52;;
68250;SDS011;55066;51.560;4.642;2023-05-13T10:24:39;13.27;;;8.90;;
68250;SDS011;55066;51.560;4.642;2023-05-13T10:27:06;13.95;;;8.75;;
68250;SDS011;55066;51.560;4.642;2023-05-13T10:29:35;15.20;;;8.75;;
68250;SDS011;55066;51.560;4.642;2023-05-13T10:32:01;15.70;;;9.50;;
68250;SDS011;55066;51.560;4.642;2023-05-13T10:34:28;14.73;;;9.60;;
68250;SDS011;55066;51.560;4.642;2023-05-13T10:37:07;12.10;;;9.27;;
68250;SDS011;55066;51.560;4.642;2023-05-13T10:45:07;16.70;;;8.70;;
68250;SDS011;55066;51.560;4.642;2023-05-13T10:47:33;13.70;;;9.13;;
68250;SDS011;55066;51.560;4.642;2023-05-13T10:50:03;13.98;;;9.10;;
68250;SDS011;55066;51.560;4.642;2023-05-13T10:52:40;14.73;;;9.55;;
68250;SDS011;55066;51.560;4.642;2023-05-13T10:55:09;19.83;;;9.65;;
68250;SDS011;55066;51.560;4.642;2023-05-13T10:57:39;12.70;;;8.73;;
68250;SDS011;55066;51.560;4.642;2023-05-13T11:00:15;15.38;;;9.45;;
68250;SDS011;55066;51.560;4.642;2023-05-13T11:02:42;18.43;;;8.60;;
68250;SDS011;55066;51.560;4.642;2023-05-13T11:05:07;15.80;;;9.73;;
68250;SDS011;55066;51.560;4.642;2023-05-13T11:07:36;15.53;;;9.23;;
68250;SDS011;55066;51.560;4.642;2023-05-13T11:10:03;13.13;;;9.40;;
68250;SDS011;55066;51.560;4.642;2023-05-13T11:13:07;13.70;;;8.98;;
68250;SDS011;55066;51.560;4.642;2023-05-13T11:15:43;14.30;;;8.95;;
68250;SDS011;55066;51.560;4.642;2023-05-13T11:18:09;13.63;;;9.00;;
68250;SDS011;55066;51.560;4.642;2023-05-13T11:20:39;14.85;;;9.02;;
68250;SDS011;55066;51.560;4.642;2023-05-13T11:23:04;14.25;;;8.93;;
68250;SDS011;55066;51.560;4.642;2023-05-13T11:25:32;15.87;;;9.43;;
68250;SDS011;55066;51.560;4.642;2023-05-13T11:27:58;14.07;;;7.53;;
68250;SDS011;55066;51.560;4.642;2023-05-13T11:30:26;19.57;;;8.87;;
68250;SDS011;55066;51.560;4.642;2023-05-13T11:32:53;18.63;;;9.80;;
68250;SDS011;55066;51.560;4.642;2023-05-13T11:35:24;14.27;;;8.93;;
68250;SDS011;55066;51.560;4.642;2023-05-13T11:37:50;13.23;;;8.73;;
68250;SDS011;55066;51.560;4.642;2023-05-13T11:40:32;13.87;;;9.10;;
68250;SDS011;55066;51.560;4.642;2023-05-13T11:42:59;16.15;;;9.80;;
68250;SDS011;55066;51.560;4.642;2023-05-13T11:45:25;11.55;;;8.32;;
68250;SDS011;55066;51.560;4.642;2023-05-13T11:47:52;15.20;;;8.73;;
68250;SDS011;55066;51.560;4.642;2023-05-13T11:50:25;13.35;;;9.10;;
68250;SDS011;55066;51.560;4.642;2023-05-13T11:52:56;14.93;;;9.13;;
68250;SDS011;55066;51.560;4.642;2023-05-13T11:55:26;13.55;;;9.52;;
68250;SDS011;55066;51.560;4.642;2023-05-13T11:57:56;13.52;;;9.25;;
68250;SDS011;55066;51.560;4.642;2023-05-13T12:00:26;14.03;;;8.67;;
68250;SDS011;55066;51.560;4.642;2023-05-13T12:02:53;11.50;;;8.93;;
68250;SDS011;55066;51.560;4.642;2023-05-13T12:05:22;12.02;;;9.15;;
68250;SDS011;55066;51.560;4.642;2023-05-13T12:07:48;15.00;;;9.20;;
68250;SDS011;55066;51.560;4.642;2023-05-13T12:10:14;13.80;;;9.00;;
68250;SDS011;55066;51.560;4.642;2023-05-13T12:12:41;13.90;;;9.00;;
68250;SDS011;55066;51.560;4.642;2023-05-13T12:15:17;16.13;;;10.25;;
68250;SDS011;55066;51.560;4.642;2023-05-13T12:17:45;14.97;;;9.33;;
68250;SDS011;55066;51.560;4.642;2023-05-13T12:20:12;13.02;;;9.35;;
68250;SDS011;55066;51.560;4.642;2023-05-13T12:28:13;12.95;;;9.02;;
68250;SDS011;55066;51.560;4.642;2023-05-13T12:31:02;12.87;;;9.10;;
68250;SDS011;55066;51.560;4.642;2023-05-13T12:38:52;13.95;;;9.20;;
68250;SDS011;55066;51.560;4.642;2023-05-13T12:41:22;13.77;;;10.00;;
68250;SDS011;55066;51.560;4.642;2023-05-13T12:43:51;13.40;;;9.80;;
68250;SDS011;55066;51.560;4.642;2023-05-13T12:46:21;12.82;;;9.10;;
68250;SDS011;55066;51.560;4.642;2023-05-13T12:48:46;14.17;;;9.60;;
68250;SDS011;55066;51.560;4.642;2023-05-13T12:51:11;14.25;;;9.02;;
68250;SDS011;55066;51.560;4.642;2023-05-13T12:53:38;14.77;;;9.02;;
68250;SDS011;55066;51.560;4.642;2023-05-13T12:56:04;12.60;;;9.23;;
68250;SDS011;55066;51.560;4.642;2023-05-13T12:58:29;13.27;;;9.33;;
68250;SDS011;55066;51.560;4.642;2023-05-13T13:00:55;11.93;;;8.87;;
68250;SDS011;55066;51.560;4.642;2023-05-13T13:03:20;13.18;;;8.85;;
68250;SDS011;55066;51.560;4.642;2023-05-13T13:05:46;13.77;;;9.23;;
68250;SDS011;55066;51.560;4.642;2023-05-13T13:08:12;12.48;;;8.32;;
68250;SDS011;55066;51.560;4.642;2023-05-13T13:10:37;14.40;;;8.80;;
68250;SDS011;55066;51.560;4.642;2023-05-13T13:13:02;13.73;;;8.50;;
68250;SDS011;55066;51.560;4.642;2023-05-13T13:15:28;14.37;;;9.00;;
68250;SDS011;55066;51.560;4.642;2023-05-13T13:17:53;14.32;;;9.52;;
68250;SDS011;55066;51.560;4.642;2023-05-13T13:20:19;14.73;;;9.33;;
68250;SDS011;55066;51.560;4.642;2023-05-13T13:22:44;13.63;;;9.17;;
68250;SDS011;55066;51.560;4.642;2023-05-13T13:25:10;11.90;;;8.57;;
68250;SDS011;55066;51.560;4.642;2023-05-13T13:27:35;10.82;;;8.20;;
68250;SDS011;55066;51.560;4.642;2023-05-13T13:30:01;10.47;;;7.83;;
68250;SDS011;55066;51.560;4.642;2023-05-13T13:32:26;12.43;;;8.73;;
68250;SDS011;55066;51.560;4.642;2023-05-13T13:34:52;12.43;;;8.53;;
68250;SDS011;55066;51.560;4.642;2023-05-13T13:37:17;13.50;;;7.97;;
68250;SDS011;55066;51.560;4.642;2023-05-13T13:39:43;12.07;;;8.83;;
68250;SDS011;55066;51.560;4.642;2023-05-13T13:42:08;13.90;;;8.93;;
68250;SDS011;55066;51.560;4.642;2023-05-13T13:44:34;10.53;;;7.27;;
68250;SDS011;55066;51.560;4.642;2023-05-13T13:47:01;11.93;;;7.78;;
68250;SDS011;55066;51.560;4.642;2023-05-13T13:49:26;12.43;;;8.07;;
68250;SDS011;55066;51.560;4.642;2023-05-13T13:51:52;14.27;;;7.60;;
68250;SDS011;55066;51.560;4.642;2023-05-13T13:54:17;11.88;;;7.85;;
68250;SDS011;55066;51.560;4.642;2023-05-13T13:56:43;10.30;;;7.93;;
68250;SDS011;55066;51.560;4.642;2023-05-13T13:59:08;10.70;;;7.17;;
68250;SDS011;55066;51.560;4.642;2023-05-13T14:01:34;14.87;;;7.10;;
68250;SDS011;55066;51.560;4.642;2023-05-13T14:04:09;11.00;;;7.40;;
68250;SDS011;55066;51.560;4.642;2023-05-13T14:06:36;9.70;;;7.30;;
68250;SDS011;55066;51.560;4.642;2023-05-13T14:09:01;12.30;;;7.53;;
68250;SDS011;55066;51.560;4.642;2023-05-13T14:11:27;9.95;;;7.15;;
68250;SDS011;55066;51.560;4.642;2023-05-13T14:13:53;13.45;;;7.57;;
68250;SDS011;55066;51.560;4.642;2023-05-13T14:16:18;10.27;;;6.87;;
68250;SDS011;55066;51.560;4.642;2023-05-13T14:18:44;11.67;;;7.53;;
68250;SDS011;55066;51.560;4.642;2023-05-13T14:21:09;12.67;;;6.63;;
68250;SDS011;55066;51.560;4.642;2023-05-13T14:23:35;11.33;;;7.13;;
68250;SDS011;55066;51.560;4.642;2023-05-13T14:26:01;11.15;;;7.32;;
68250;SDS011;55066;51.560;4.642;2023-05-13T14:28:26;10.90;;;6.93;;
68250;SDS011;55066;51.560;4.642;2023-05-13T14:30:52;10.30;;;6.90;;
68250;SDS011;55066;51.560;4.642;2023-05-13T14:33:17;11.67;;;6.53;;
68250;SDS011;55066;51.560;4.642;2023-05-13T14:35:43;13.13;;;7.17;;
68250;SDS011;55066;51.560;4.642;2023-05-13T14:38:08;9.90;;;6.97;;
68250;SDS011;55066;51.560;4.642;2023-05-13T14:40:33;10.45;;;7.22;;
68250;SDS011;55066;51.560;4.642;2023-05-13T14:42:59;9.63;;;6.33;;
68250;SDS011;55066;51.560;4.642;2023-05-13T14:45:25;10.63;;;7.70;;
68250;SDS011;55066;51.560;4.642;2023-05-13T14:47:50;12.30;;;7.43;;
68250;SDS011;55066;51.560;4.642;2023-05-13T14:50:18;10.23;;;7.05;;
68250;SDS011;55066;51.560;4.642;2023-05-13T14:52:47;9.50;;;5.93;;
68250;SDS011;55066;51.560;4.642;2023-05-13T14:55:12;11.87;;;5.70;;
68250;SDS011;55066;51.560;4.642;2023-05-13T14:57:37;8.63;;;5.03;;
68250;SDS011;55066;51.560;4.642;2023-05-13T15:00:03;8.20;;;4.93;;
68250;SDS011;55066;51.560;4.642;2023-05-13T15:02:29;7.47;;;4.70;;